Time;durP1;ratioP1;P1;durP2;ratioP2;P2;SDS_P1;SDS_P2;PMS_P1;PMS_P2;Temp;Humidity;BMP_temperature;BMP_pressure;BME280_temperature;BME280_humidity;BME280_pressure;Samples;Min_cycle;Max_cycle;Signal;HPM_P1;HPM_P2
2022/06/20 00:00:13;;;;;;;;;;;;;;;18.77;67.18;99774.78;4990443;28;20308;-91
2022/06/20 00:02:42;;;;;;;;;;;;;;;18.76;66.50;99768.56;4991799;28;20376;-90
2022/06/20 00:05:10;;;;;;;;;;;;;;;18.61;65.96;99769.28;4991556;28;20016;-90
2022/06/20 00:07:36;;;;;;;;;;;;;;;18.67;65.06;99768.13;4991589;28;20016;-89
2022/06/20 00:10:01;;;;;;;;;;;;;;;18.55;65.32;99773.13;4991736;28;20008;-89
2022/06/20 00:12:27;;;;;;;;;;;;;;;18.61;64.54;99774.63;4990241;28;20439;-89
2022/06/20 00:14:54;;;;;;;;;;;;;;;18.56;64.04;99780.19;4981104;28;20304;-89
2022/06/20 00:17:21;;;;;;;;;;;;;;;18.49;63.78;99769.84;4991797;28;19914;-89
2022/06/20 00:19:46;;;;;;;;;;;;;;;18.42;63.76;99771.94;4991804;28;19913;-89
2022/06/20 00:22:12;;;;;;;;;;;;;;;18.42;63.86;99769.28;4991560;28;19909;-89
2022/06/20 00:24:37;;;;;;;;;;;;;;;18.34;64.36;99769.63;4991583;28;19921;-88
2022/06/20 00:27:06;;;;;;;;;;;;;;;18.29;64.84;99769.00;4989635;28;20384;-88
2022/06/20 00:29:32;;;;;;;;;;;;;;;18.25;65.32;99767.38;4991943;28;19921;-90
2022/06/20 00:31:58;;;;;;;;;;;;;;;18.33;64.94;99761.69;4991559;28;19914;-88
2022/06/20 00:34:23;;;;;;;;;;;;;;;18.30;65.11;99762.69;4993572;28;19967;-88
2022/06/20 00:36:48;;;;;;;;;;;;;;;18.28;65.48;99761.91;5004973;28;19917;-88
2022/06/20 00:39:14;;;;;;;;;;;;;;;18.29;65.72;99765.44;4991611;28;19921;-88
2022/06/20 00:41:39;;;;;;;;;;;;;;;18.24;64.75;99763.84;4992988;28;19981;-88
2022/06/20 00:44:10;;;;;;;;;;;;;;;18.32;63.95;99763.50;5000536;28;20405;-87
2022/06/20 00:46:35;;;;;;;;;;;;;;;18.23;64.14;99761.25;5010990;28;19913;-88
2022/06/20 00:49:19;;;;;;;;;;;;;;;18.09;64.86;99751.22;5011342;28;20322;-88
2022/06/20 00:51:52;;;;;;;;;;;;;;;18.20;64.26;99756.91;5011118;28;19913;-89
2022/06/20 00:54:29;;;;;;;;;;;;;;;18.15;64.51;99753.59;4989648;28;19925;-89
2022/06/20 00:56:57;;;;;;;;;;;;;;;18.19;65.18;99757.84;4999457;28;19922;-90
2022/06/20 00:59:28;;;;;;;;;;;;;;;17.68;67.39;99759.19;4991581;28;19928;-89
2022/06/20 01:01:54;;;;;;;;;;;;;;;17.88;66.67;99755.66;4992550;28;19949;-89
2022/06/20 01:04:23;;;;;;;;;;;;;;;17.96;65.38;99748.19;4979721;28;20010;-89
2022/06/20 01:06:53;;;;;;;;;;;;;;;18.08;64.84;99754.81;5013944;28;19984;-90
2022/06/20 01:09:20;;;;;;;;;;;;;;;18.06;64.77;99756.69;5014000;28;19917;-91
2022/06/20 01:11:47;;;;;;;;;;;;;;;18.04;64.68;99755.88;5014309;28;19913;-89
2022/06/20 01:14:38;;;;;;;;;;;;;;;17.89;65.36;99752.94;4997982;28;19914;-89
2022/06/20 01:17:11;;;;;;;;;;;;;;;17.82;65.57;99750.59;5011487;28;20489;-89
2022/06/20 01:19:54;;;;;;;;;;;;;;;17.81;65.73;99743.50;5010335;28;19914;-89
2022/06/20 01:22:36;;;;;;;;;;;;;;;17.94;66.20;99744.75;5004236;28;19917;-88
2022/06/20 01:25:08;;;;;;;;;;;;;;;18.12;66.00;99743.06;4995205;28;19913;-89
2022/06/20 01:27:39;;;;;;;;;;;;;;;18.01;65.87;99738.22;5014339;28;19924;-88
2022/06/20 01:30:05;;;;;;;;;;;;;;;18.15;65.40;99737.59;5001808;28;19914;-88
2022/06/20 01:32:30;;;;;;;;;;;;;;;18.24;64.08;99730.94;4995341;28;19922;-89
2022/06/20 01:34:57;;;;;;;;;;;;;;;18.02;65.69;99737.25;5012755;28;19921;-89
2022/06/20 01:37:23;;;;;;;;;;;;;;;17.92;66.26;99719.94;5002233;28;19928;-89
2022/06/20 01:39:49;;;;;;;;;;;;;;;17.85;66.72;99732.63;4994461;28;20000;-89
2022/06/20 01:42:18;;;;;;;;;;;;;;;17.96;66.43;99729.53;4994487;28;19973;-88
2022/06/20 01:44:46;;;;;;;;;;;;;;;17.96;66.58;99728.66;5010778;28;19924;-88
2022/06/20 01:47:11;;;;;;;;;;;;;;;17.94;66.85;99731.41;5013082;28;19995;-89
2022/06/20 01:49:37;;;;;;;;;;;;;;;17.83;66.25;99731.00;5013507;28;20399;-89
2022/06/20 01:52:23;;;;;;;;;;;;;;;17.67;67.03;99722.78;5007021;28;20373;-89
2022/06/20 01:54:53;;;;;;;;;;;;;;;17.67;66.82;99731.66;5013073;28;19967;-90
2022/06/20 01:57:20;;;;;;;;;;;;;;;17.62;66.44;99735.47;5001572;28;19924;-90
2022/06/20 01:59:51;;;;;;;;;;;;;;;17.49;67.13;99732.47;4992990;28;19917;-89
2022/06/20 02:02:17;;;;;;;;;;;;;;;17.65;66.60;99730.84;5000671;28;19925;-89
2022/06/20 02:04:42;;;;;;;;;;;;;;;17.71;66.59;99730.56;4993153;28;19914;-89
2022/06/20 02:07:09;;;;;;;;;;;;;;;17.70;66.64;99718.19;5002495;28;20395;-88
2022/06/20 02:09:35;;;;;;;;;;;;;;;17.80;66.58;99717.78;4984547;28;19918;-88
2022/06/20 02:12:01;;;;;;;;;;;;;;;17.94;65.17;99726.06;5001289;28;20311;-88
2022/06/20 02:14:37;;;;;;;;;;;;;;;17.89;64.60;99715.59;4997179;28;19925;-88
2022/06/20 02:17:13;;;;;;;;;;;;;;;17.89;64.01;99725.41;4999894;28;19925;-89
2022/06/20 02:19:43;;;;;;;;;;;;;;;17.75;64.56;99715.31;5012648;28;19914;-90
2022/06/20 02:22:09;;;;;;;;;;;;;;;17.66;65.20;99719.25;5002292;28;19924;-89
2022/06/20 02:24:36;;;;;;;;;;;;;;;17.80;65.37;99715.13;4991691;28;19964;-89
2022/06/20 02:27:03;;;;;;;;;;;;;;;17.74;65.87;99718.06;4991902;28;19920;-89
2022/06/20 02:29:29;;;;;;;;;;;;;;;17.82;65.72;99721.25;4992859;28;19921;-89
2022/06/20 02:32:00;;;;;;;;;;;;;;;17.70;65.79;99715.53;5004795;28;19917;-89
2022/06/20 02:34:28;;;;;;;;;;;;;;;17.58;65.98;99716.06;5010743;28;19917;-89
2022/06/20 02:36:55;;;;;;;;;;;;;;;17.60;66.07;99713.34;5011296;28;19928;-89
2022/06/20 02:39:21;;;;;;;;;;;;;;;17.53;66.44;99704.72;5012581;28;19917;-89
2022/06/20 02:41:48;;;;;;;;;;;;;;;17.36;67.04;99706.31;5012468;28;19920;-90
2022/06/20 02:44:16;;;;;;;;;;;;;;;17.28;67.61;99704.91;4997891;28;19928;-89
2022/06/20 02:46:42;;;;;;;;;;;;;;;17.31;67.45;99700.31;4995441;28;19924;-90
2022/06/20 02:49:09;;;;;;;;;;;;;;;17.35;67.42;99703.72;4994632;28;19917;-90
2022/06/20 02:51:40;;;;;;;;;;;;;;;17.40;67.18;99707.06;4992312;28;20372;-90
2022/06/20 02:54:07;;;;;;;;;;;;;;;17.43;67.01;99712.25;4982907;28;19922;-89
2022/06/20 02:56:37;;;;;;;;;;;;;;;17.42;67.41;99707.84;4981456;28;20301;-89
2022/06/20 02:59:05;;;;;;;;;;;;;;;17.65;66.77;99709.50;4992911;28;19925;-89
2022/06/20 03:01:36;;;;;;;;;;;;;;;17.66;67.06;99718.41;4991230;28;20379;-91
2022/06/20 03:04:03;;;;;;;;;;;;;;;17.65;67.25;99709.50;4991910;28;19921;-92
2022/06/20 03:06:37;;;;;;;;;;;;;;;17.64;67.29;99714.91;4992199;28;20005;-85
2022/06/20 03:09:03;;;;;;;;;;;;;;;17.54;67.32;99711.78;4992798;28;20021;-85
2022/06/20 03:11:30;;;;;;;;;;;;;;;17.53;67.25;99712.72;4992673;28;20009;-84
2022/06/20 03:13:57;;;;;;;;;;;;;;;17.37;67.25;99715.19;5011242;28;20403;-84
2022/06/20 03:16:23;;;;;;;;;;;;;;;17.30;67.33;99716.38;5002817;28;19918;-83
2022/06/20 03:18:49;;;;;;;;;;;;;;;17.28;67.50;99711.09;4992665;28;20360;-85
2022/06/20 03:21:17;;;;;;;;;;;;;;;17.23;67.51;99718.44;4992669;28;19964;-85
2022/06/20 03:23:42;;;;;;;;;;;;;;;17.31;67.25;99712.78;4992806;28;20343;-85
2022/06/20 03:26:11;;;;;;;;;;;;;;;17.33;66.86;99721.56;4992426;28;20004;-86
2022/06/20 03:28:37;;;;;;;;;;;;;;;17.27;66.80;99724.50;4991127;28;19914;-85
2022/06/20 03:31:03;;;;;;;;;;;;;;;17.38;66.52;99716.91;4992607;28;19933;-85
2022/06/20 03:33:29;;;;;;;;;;;;;;;17.63;66.06;99706.06;4992137;28;19924;-85
2022/06/20 03:35:57;;;;;;;;;;;;;;;17.59;66.37;99709.78;5005997;28;19917;-85
2022/06/20 03:38:23;;;;;;;;;;;;;;;17.64;66.16;99707.78;5011312;28;20002;-85
2022/06/20 03:40:49;;;;;;;;;;;;;;;17.65;66.15;99713.97;5012047;28;19976;-85
2022/06/20 03:43:17;;;;;;;;;;;;;;;17.72;66.41;99710.13;5012220;28;19913;-88
2022/06/20 03:45:45;;;;;;;;;;;;;;;17.77;66.22;99709.91;5012026;28;19984;-86
2022/06/20 03:48:13;;;;;;;;;;;;;;;17.83;66.62;99710.50;5011962;28;19968;-87
2022/06/20 03:50:42;;;;;;;;;;;;;;;18.03;65.53;99706.09;4993252;28;20289;-87
2022/06/20 03:53:26;;;;;;;;;;;;;;;18.26;64.99;99715.72;5011415;28;20008;-87
2022/06/20 03:55:51;;;;;;;;;;;;;;;18.36;64.40;99702.81;5011271;28;19972;-87
2022/06/20 03:58:24;;;;;;;;;;;;;;;18.29;64.16;99706.69;5010782;28;20387;-88
2022/06/20 04:00:56;;;;;;;;;;;;;;;18.46;63.96;99709.47;5011501;28;19999;-87
2022/06/20 04:03:27;;;;;;;;;;;;;;;18.72;63.35;99701.97;5011575;28;19910;-88
2022/06/20 04:05:59;;;;;;;;;;;;;;;18.70;63.87;99701.19;5011092;28;19918;-87
2022/06/20 04:11:32;;;;;;;;;;;;;;;18.97;64.07;99707.03;5011172;28;19924;-85
2022/06/20 04:14:02;;;;;;;;;;;;;;;19.02;64.51;99713.00;5011348;28;19914;-86
2022/06/20 04:16:36;;;;;;;;;;;;;;;19.17;63.75;99707.84;5011180;28;19917;-87
2022/06/20 04:19:07;;;;;;;;;;;;;;;19.10;63.66;99705.47;5010679;28;19901;-89
2022/06/20 04:21:40;;;;;;;;;;;;;;;19.17;63.28;99708.72;5008510;28;19917;-88
2022/06/20 04:24:20;;;;;;;;;;;;;;;19.14;64.01;99712.41;5009468;28;19913;-88
2022/06/20 04:26:55;;;;;;;;;;;;;;;19.14;64.34;99712.41;5009687;28;19940;-87
2022/06/20 04:29:20;;;;;;;;;;;;;;;18.88;66.07;99716.38;5009000;28;19917;-88
2022/06/20 04:31:49;;;;;;;;;;;;;;;19.12;65.15;99713.41;5009781;28;20009;-90
2022/06/20 04:34:20;;;;;;;;;;;;;;;19.50;62.97;99703.44;5009538;28;19921;-89
2022/06/20 04:36:55;;;;;;;;;;;;;;;19.65;61.29;99698.25;5011102;28;19953;-89
2022/06/20 04:39:24;;;;;;;;;;;;;;;19.77;60.48;99710.13;5012380;28;19914;-89
2022/06/20 04:41:56;;;;;;;;;;;;;;;19.76;61.74;99695.88;5014272;28;19913;-88
2022/06/20 04:44:24;;;;;;;;;;;;;;;19.86;60.21;99696.25;4996968;28;19940;-88
2022/06/20 04:47:13;;;;;;;;;;;;;;;19.83;59.75;99697.31;4986473;28;20462;-88
2022/06/20 04:49:38;;;;;;;;;;;;;;;19.88;58.52;99699.75;4969745;28;19925;-88
2022/06/20 04:52:06;;;;;;;;;;;;;;;19.95;59.36;99698.44;4994373;28;20368;-87
2022/06/20 04:54:31;;;;;;;;;;;;;;;19.79;60.74;99692.19;4995203;28;19918;-89
2022/06/20 04:56:56;;;;;;;;;;;;;;;19.60;60.40;99689.56;4994281;28;19972;-89
2022/06/20 04:59:26;;;;;;;;;;;;;;;19.98;59.07;99686.72;4993998;28;19929;-89
2022/06/20 05:01:51;;;;;;;;;;;;;;;20.13;60.19;99693.91;4994877;28;19920;-89
2022/06/20 05:04:20;;;;;;;;;;;;;;;20.48;58.28;99675.03;4994252;28;20008;-87
2022/06/20 05:06:45;;;;;;;;;;;;;;;20.68;58.58;99686.44;4994692;28;19998;-88
2022/06/20 05:09:15;;;;;;;;;;;;;;;20.39;58.31;99683.59;5004448;28;19952;-88
2022/06/20 05:11:53;;;;;;;;;;;;;;;20.84;58.80;99675.72;4977830;28;19957;-90
2022/06/20 05:14:18;;;;;;;;;;;;;;;21.29;55.87;99676.66;4994297;28;19918;-88
2022/06/20 05:16:47;;;;;;;;;;;;;;;21.10;57.12;99682.22;4995013;28;19916;-87
2022/06/20 05:19:20;;;;;;;;;;;;;;;21.23;56.65;99677.88;4993462;28;19913;-88
2022/06/20 05:21:47;;;;;;;;;;;;;;;21.56;54.40;99684.03;4994348;28;19921;-88
2022/06/20 05:24:17;;;;;;;;;;;;;;;21.82;56.21;99685.09;4993606;28;19929;-88
2022/06/20 05:26:44;;;;;;;;;;;;;;;22.03;52.74;99692.78;4994278;28;19914;-88
2022/06/20 05:29:14;;;;;;;;;;;;;;;21.79;52.93;99687.97;4993893;28;19922;-88
2022/06/20 05:31:42;;;;;;;;;;;;;;;21.88;55.56;99694.63;4993880;28;19918;-88
2022/06/20 05:34:17;;;;;;;;;;;;;;;22.28;52.62;99682.22;4994333;28;20400;-88
2022/06/20 05:36:49;;;;;;;;;;;;;;;22.15;54.03;99692.88;4993671;28;19924;-90
2022/06/20 05:39:21;;;;;;;;;;;;;;;22.33;53.07;99679.28;4994355;28;19913;-87
2022/06/20 05:41:47;;;;;;;;;;;;;;;22.60;52.28;99678.44;4994603;28;19921;-88
2022/06/20 05:44:12;;;;;;;;;;;;;;;22.53;51.40;99680.66;4993599;28;20288;-89
2022/06/20 05:46:44;;;;;;;;;;;;;;;22.69;52.10;99677.84;4976021;28;19921;-88
2022/06/20 05:49:16;;;;;;;;;;;;;;;22.85;53.25;99673.19;4993095;28;20315;-88
2022/06/20 05:51:43;;;;;;;;;;;;;;;23.21;51.24;99671.69;4973483;28;19918;-88
2022/06/20 05:54:28;;;;;;;;;;;;;;;23.21;50.93;99673.53;4974357;28;19917;-89
2022/06/20 05:57:05;;;;;;;;;;;;;;;24.08;50.57;99677.38;4982678;28;19921;-90
2022/06/20 05:59:40;;;;;;;;;;;;;;;24.22;49.19;99664.72;4992861;28;19925;-92
2022/06/20 06:02:14;;;;;;;;;;;;;;;24.42;47.63;99663.28;4994405;28;19913;-91
2022/06/20 06:04:44;;;;;;;;;;;;;;;24.61;47.75;99663.69;4992767;28;20320;-92
2022/06/20 06:07:11;;;;;;;;;;;;;;;24.48;46.68;99670.91;4993601;28;19919;-91
2022/06/20 06:09:55;;;;;;;;;;;;;;;24.54;47.43;99662.38;4993779;28;19960;-91
2022/06/20 06:12:31;;;;;;;;;;;;;;;24.58;47.65;99663.06;4974382;28;20013;-91
2022/06/20 06:15:02;;;;;;;;;;;;;;;24.95;47.06;99666.56;4974117;28;20447;-88
2022/06/20 06:17:27;;;;;;;;;;;;;;;24.98;47.01;99658.25;4991558;28;19913;-88
2022/06/20 06:19:57;;;;;;;;;;;;;;;24.91;47.69;99658.81;4993164;28;19964;-89
2022/06/20 06:22:24;;;;;;;;;;;;;;;25.04;45.23;99651.53;4992736;28;19981;-90
2022/06/20 06:24:54;;;;;;;;;;;;;;;25.10;43.96;99655.56;4993285;28;19914;-87
2022/06/20 06:27:21;;;;;;;;;;;;;;;25.21;43.01;99650.25;4991912;28;19922;-86
2022/06/20 06:29:50;;;;;;;;;;;;;;;25.71;44.16;99656.25;4992731;28;20355;-87
2022/06/20 06:32:22;;;;;;;;;;;;;;;25.50;44.46;99647.13;4992298;28;19917;-88
2022/06/20 06:34:53;;;;;;;;;;;;;;;25.78;43.03;99635.03;4998642;28;19924;-89
2022/06/20 06:37:34;;;;;;;;;;;;;;;25.78;43.20;99639.56;5012476;28;19919;-87
2022/06/20 06:39:59;;;;;;;;;;;;;;;25.36;42.05;99630.19;5013356;28;19913;-87
2022/06/20 06:42:24;;;;;;;;;;;;;;;25.61;44.02;99627.38;5012552;28;20376;-88
2022/06/20 06:44:50;;;;;;;;;;;;;;;25.40;41.55;99628.09;5012479;28;19952;-88
2022/06/20 06:47:19;;;;;;;;;;;;;;;25.69;42.10;99627.66;5012799;28;19968;-88
2022/06/20 06:49:49;;;;;;;;;;;;;;;26.09;42.63;99627.22;5012523;28;19920;-88
2022/06/20 06:52:14;;;;;;;;;;;;;;;26.74;40.88;99624.63;5012916;28;19913;-88
2022/06/20 06:54:49;;;;;;;;;;;;;;;27.43;39.81;99620.63;5012787;28;19913;-88
2022/06/20 06:57:33;;;;;;;;;;;;;;;27.50;39.64;99616.41;5012202;28;19913;-88
2022/06/20 07:00:04;;;;;;;;;;;;;;;27.01;38.72;99605.19;5012491;28;19979;-89
2022/06/20 07:02:36;;;;;;;;;;;;;;;26.58;39.58;99614.19;5012509;28;20007;-88
2022/06/20 07:05:05;;;;;;;;;;;;;;;26.96;40.57;99613.72;5012522;28;20363;-88
2022/06/20 07:07:36;;;;;;;;;;;;;;;26.57;39.23;99607.94;5011957;28;20399;-89
2022/06/20 07:10:02;;;;;;;;;;;;;;;26.59;39.54;99603.25;5012725;28;19949;-88
2022/06/20 07:12:36;;;;;;;;;;;;;;;26.79;40.53;99596.19;5012167;28;19917;-89
2022/06/20 07:15:01;;;;;;;;;;;;;;;27.49;39.72;99596.56;5011632;28;19917;-88
2022/06/20 07:17:47;;;;;;;;;;;;;;;27.73;38.09;99595.41;5012300;28;20445;-89
2022/06/20 07:20:12;;;;;;;;;;;;;;;27.75;38.82;99595.28;5003599;28;19913;-89
2022/06/20 07:22:40;;;;;;;;;;;;;;;28.20;38.54;99587.59;5011790;28;20362;-90
2022/06/20 07:25:06;;;;;;;;;;;;;;;27.97;36.89;99577.97;5012496;28;19963;-89
2022/06/20 07:27:37;;;;;;;;;;;;;;;28.11;40.29;99582.16;5010728;28;19917;-90
2022/06/20 07:30:02;;;;;;;;;;;;;;;28.25;38.70;99580.91;5012184;28;19913;-91
2022/06/20 07:32:36;;;;;;;;;;;;;;;28.52;38.17;99567.53;5011754;28;19948;-90
2022/06/20 07:35:06;;;;;;;;;;;;;;;28.09;38.57;99581.47;5011696;28;19974;-91
2022/06/20 07:37:42;;;;;;;;;;;;;;;27.89;37.75;99577.78;5011546;28;19919;-91
2022/06/20 07:40:12;;;;;;;;;;;;;;;28.84;38.11;99574.59;5012029;28;19913;-90
2022/06/20 07:42:56;;;;;;;;;;;;;;;29.11;37.43;99565.69;5012346;28;19919;-90
2022/06/20 07:45:41;;;;;;;;;;;;;;;29.54;36.97;99568.06;5011439;28;19921;-91
2022/06/20 07:48:10;;;;;;;;;;;;;;;29.92;36.56;99563.47;5011858;28;20004;-91
2022/06/20 07:50:38;;;;;;;;;;;;;;;29.89;36.49;99559.22;5014684;28;19913;-91
2022/06/20 07:53:12;;;;;;;;;;;;;;;29.73;35.68;99567.97;4995529;28;19980;-90
2022/06/20 07:55:40;;;;;;;;;;;;;;;29.43;35.77;99555.50;4993363;28;19918;-89
2022/06/20 07:58:26;;;;;;;;;;;;;;;29.44;35.14;99555.34;4992129;28;19913;-89
2022/06/20 08:00:52;;;;;;;;;;;;;;;29.95;36.99;99549.56;4992239;28;19914;-89
2022/06/20 08:03:22;;;;;;;;;;;;;;;30.51;36.19;99544.97;4992189;28;19920;-89
2022/06/20 08:06:08;;;;;;;;;;;;;;;29.70;34.18;99546.50;4991763;28;19918;-90
2022/06/20 08:08:33;;;;;;;;;;;;;;;29.52;33.03;99548.31;4952131;28;19918;-90
2022/06/20 08:11:08;;;;;;;;;;;;;;;29.87;33.52;99544.03;4992054;28;20008;-89
2022/06/20 08:13:41;;;;;;;;;;;;;;;29.97;36.53;99539.44;4993231;28;20024;-90
2022/06/20 08:16:07;;;;;;;;;;;;;;;29.94;35.23;99537.00;5015379;28;19972;-90
2022/06/20 08:18:32;;;;;;;;;;;;;;;30.33;33.67;99536.75;5015553;28;19913;-89
2022/06/20 08:21:22;;;;;;;;;;;;;;;30.46;34.12;99529.09;5014935;28;19913;-90
2022/06/20 08:23:52;;;;;;;;;;;;;;;30.08;34.73;99531.03;5015577;28;19964;-90
2022/06/20 08:26:23;;;;;;;;;;;;;;;29.99;36.46;99538.25;5015405;28;20347;-90
2022/06/20 08:28:48;;;;;;;;;;;;;;;30.40;37.72;99526.13;5014995;28;19977;-88
2022/06/20 08:31:20;;;;;;;;;;;;;;;29.78;34.02;99532.16;5018661;28;19917;-88
2022/06/20 08:34:12;;;;;;;;;;;;;;;29.74;35.82;99526.19;5017135;28;19921;-88
2022/06/20 08:36:44;;;;;;;;;;;;;;;30.37;37.05;99527.28;4999437;28;19917;-88
2022/06/20 08:39:14;;;;;;;;;;;;;;;31.18;31.68;99525.44;5015114;28;19917;-88
2022/06/20 08:41:42;;;;;;;;;;;;;;;31.66;33.04;99515.84;5014576;28;19921;-88
2022/06/20 08:44:08;;;;;;;;;;;;;;;31.06;31.71;99517.56;5014059;28;19909;-88
2022/06/20 08:46:45;;;;;;;;;;;;;;;30.94;32.73;99512.47;5015388;28;20000;-88
2022/06/20 08:49:29;;;;;;;;;;;;;;;30.54;30.78;99520.16;5014115;28;19909;-89
2022/06/20 08:52:06;;;;;;;;;;;;;;;31.13;32.41;99515.03;5014546;28;20391;-87
2022/06/20 08:54:52;;;;;;;;;;;;;;;31.00;32.72;99514.59;4995707;28;20008;-87
2022/06/20 08:57:22;;;;;;;;;;;;;;;30.43;32.14;99518.53;5006954;28;19914;-88
2022/06/20 08:59:57;;;;;;;;;;;;;;;30.26;34.64;99519.31;5014774;28;19920;-86
2022/06/20 09:02:26;;;;;;;;;;;;;;;30.97;34.98;99520.31;5014312;28;19918;-85
2022/06/20 09:04:51;;;;;;;;;;;;;;;31.45;31.87;99529.88;5014460;28;19917;-86
2022/06/20 09:07:31;;;;;;;;;;;;;;;31.64;29.45;99515.19;5013905;28;20403;-85
2022/06/20 09:10:03;;;;;;;;;;;;;;;31.88;30.98;99514.41;5014460;28;19924;-86
2022/06/20 09:12:31;;;;;;;;;;;;;;;31.87;33.17;99509.97;5014889;28;20387;-86
2022/06/20 09:14:56;;;;;;;;;;;;;;;32.48;28.72;99509.78;5014378;28;19917;-85
2022/06/20 09:17:44;;;;;;;;;;;;;;;31.50;31.95;99507.59;5014092;28;19917;-86
2022/06/20 09:20:39;;;;;;;;;;;;;;;30.97;30.02;99513.06;5014746;28;19919;-87
2022/06/20 09:23:11;;;;;;;;;;;;;;;32.25;29.19;99507.72;4961434;28;19966;-87
2022/06/20 09:25:39;;;;;;;;;;;;;;;31.89;29.71;99501.63;5014009;28;19920;-87
2022/06/20 09:28:22;;;;;;;;;;;;;;;31.45;30.06;99499.03;5014887;28;20430;-86
2022/06/20 09:31:07;;;;;;;;;;;;;;;31.52;33.85;99495.47;5013382;28;19936;-87
2022/06/20 09:33:51;;;;;;;;;;;;;;;32.41;27.86;99495.09;4993129;28;20366;-85
2022/06/20 09:36:19;;;;;;;;;;;;;;;32.28;28.20;99488.28;5014102;28;19924;-85
2022/06/20 09:38:44;;;;;;;;;;;;;;;32.38;31.72;99490.00;5014062;28;19936;-87
2022/06/20 09:41:13;;;;;;;;;;;;;;;32.52;31.16;99494.78;5014348;28;20387;-86
2022/06/20 09:43:38;;;;;;;;;;;;;;;32.32;24.15;99486.09;5013019;28;20023;-87
2022/06/20 09:46:06;;;;;;;;;;;;;;;31.16;23.93;99482.03;5012628;28;19917;-86
2022/06/20 09:49:01;;;;;;;;;;;;;;;31.79;24.86;99488.13;5013836;28;19928;-86
2022/06/20 09:51:27;;;;;;;;;;;;;;;32.54;23.30;99475.53;5004543;28;19914;-86
2022/06/20 09:53:59;;;;;;;;;;;;;;;32.32;30.56;99472.44;5013773;28;19913;-86
2022/06/20 09:56:37;;;;;;;;;;;;;;;32.30;23.86;99469.88;5013713;28;19920;-85
2022/06/20 09:59:09;;;;;;;;;;;;;;;32.26;22.94;99471.22;5013504;28;19913;-85
2022/06/20 10:01:42;;;;;;;;;;;;;;;32.33;27.14;99470.56;5012964;28;19976;-86
2022/06/20 10:04:26;;;;;;;;;;;;;;;31.70;23.73;99465.44;5014044;28;19948;-85
2022/06/20 10:07:02;;;;;;;;;;;;;;;31.72;28.35;99466.13;5012667;28;20012;-88
2022/06/20 10:09:47;;;;;;;;;;;;;;;32.36;26.04;99462.88;5013325;28;19921;-86
2022/06/20 10:12:21;;;;;;;;;;;;;;;32.56;23.17;99455.19;5013228;28;20439;-87
2022/06/20 10:14:51;;;;;;;;;;;;;;;31.94;33.50;99452.91;5011419;28;20319;-86
2022/06/20 10:17:49;;;;;;;;;;;;;;;31.69;27.67;99455.56;5013114;28;19913;-88
2022/06/20 10:20:17;;;;;;;;;;;;;;;31.97;26.60;99447.09;4990249;28;19921;-86
2022/06/20 10:22:54;;;;;;;;;;;;;;;32.39;27.50;99450.78;5012505;28;19975;-86
2022/06/20 10:25:22;;;;;;;;;;;;;;;32.78;25.17;99442.78;5013089;28;20063;-87
2022/06/20 10:27:57;;;;;;;;;;;;;;;33.02;24.34;99441.84;5012400;28;19922;-87
2022/06/20 10:30:41;;;;;;;;;;;;;;;32.69;23.60;99432.88;5013117;28;19914;-88
2022/06/20 10:33:24;;;;;;;;;;;;;;;32.90;24.31;99437.78;4993703;28;19972;-87
2022/06/20 10:36:08;;;;;;;;;;;;;;;32.83;26.32;99443.09;4992538;28;19924;-87
2022/06/20 10:38:41;;;;;;;;;;;;;;;32.86;29.13;99433.72;4993026;28;19918;-86
2022/06/20 10:41:15;;;;;;;;;;;;;;;33.12;25.97;99432.59;4993610;28;20005;-88
2022/06/20 10:43:59;;;;;;;;;;;;;;;32.92;22.40;99430.28;5002639;28;19924;-87
2022/06/20 10:46:25;;;;;;;;;;;;;;;32.94;23.83;99421.91;5013128;28;19921;-87
2022/06/20 10:48:53;;;;;;;;;;;;;;;32.51;25.62;99422.13;5011953;28;19914;-90
2022/06/20 10:51:22;;;;;;;;;;;;;;;32.56;27.44;99419.72;5011879;28;19913;-88
2022/06/20 10:53:47;;;;;;;;;;;;;;;32.49;27.27;99413.25;5013075;28;19913;-88
2022/06/20 10:56:31;;;;;;;;;;;;;;;31.95;26.06;99408.25;5012744;28;19968;-88
2022/06/20 10:59:03;;;;;;;;;;;;;;;32.57;23.80;99407.78;5012559;28;19913;-88
2022/06/20 11:01:37;;;;;;;;;;;;;;;33.09;24.66;99411.97;5012305;28;19913;-88
2022/06/20 11:04:06;;;;;;;;;;;;;;;33.43;23.10;99415.44;5012445;28;19967;-89
2022/06/20 11:06:40;;;;;;;;;;;;;;;33.36;22.40;99407.13;5012666;28;20003;-88
2022/06/20 11:09:13;;;;;;;;;;;;;;;32.75;22.30;99414.94;5012366;28;19924;-90
2022/06/20 11:11:44;;;;;;;;;;;;;;;32.28;22.93;99408.31;5012371;28;19915;-88
2022/06/20 11:14:09;;;;;;;;;;;;;;;31.48;23.96;99398.75;5012176;28;20372;-88
2022/06/20 11:16:37;;;;;;;;;;;;;;;31.37;22.62;99391.72;5012604;28;19960;-88
2022/06/20 11:19:12;;;;;;;;;;;;;;;31.94;22.45;99393.75;5012208;28;19913;-87
2022/06/20 11:21:38;;;;;;;;;;;;;;;32.14;22.88;99390.72;5011927;28;19917;-88
2022/06/20 11:24:28;;;;;;;;;;;;;;;31.86;23.19;99399.19;4994404;28;19920;-88
2022/06/20 11:26:53;;;;;;;;;;;;;;;31.64;23.99;99394.38;5011724;28;20298;-87
2022/06/20 11:29:18;;;;;;;;;;;;;;;31.51;25.07;99384.78;5012441;28;19914;-89
2022/06/20 11:31:50;;;;;;;;;;;;;;;31.65;25.48;99382.44;5011978;28;19914;-88
2022/06/20 11:34:15;;;;;;;;;;;;;;;31.80;25.62;99388.97;5012147;28;19914;-89
2022/06/20 11:36:43;;;;;;;;;;;;;;;31.95;24.46;99384.56;5011791;28;19920;-89
2022/06/20 11:39:18;;;;;;;;;;;;;;;32.16;22.93;99379.66;5011744;28;19913;-88
2022/06/20 11:41:46;;;;;;;;;;;;;;;32.39;22.63;99375.19;5012016;28;19920;-89
2022/06/20 11:44:34;;;;;;;;;;;;;;;32.65;23.14;99374.19;5011711;28;19917;-87
2022/06/20 11:47:14;;;;;;;;;;;;;;;32.73;21.36;99376.88;5011774;28;20481;-88
2022/06/20 11:49:58;;;;;;;;;;;;;;;32.48;21.13;99376.91;5010769;28;19909;-88
2022/06/20 11:52:29;;;;;;;;;;;;;;;32.93;23.18;99366.41;5001545;28;19921;-87
2022/06/20 11:55:00;;;;;;;;;;;;;;;33.25;20.91;99370.09;4991879;28;20470;-89
2022/06/20 11:57:34;;;;;;;;;;;;;;;33.44;23.04;99357.03;4997652;28;20350;-88
2022/06/20 12:00:06;;;;;;;;;;;;;;;33.17;23.59;99351.00;4996482;28;20322;-88
2022/06/20 12:02:43;;;;;;;;;;;;;;;31.70;24.42;99350.06;4997579;28;19983;-88
2022/06/20 12:05:17;;;;;;;;;;;;;;;31.44;25.62;99347.47;4991419;28;19914;-89
2022/06/20 12:08:02;;;;;;;;;;;;;;;32.19;24.96;99352.88;4992169;28;19913;-89
2022/06/20 12:10:34;;;;;;;;;;;;;;;32.82;23.57;99350.41;4961315;28;19953;-88
2022/06/20 12:12:59;;;;;;;;;;;;;;;32.39;22.04;99347.06;4991924;28;19920;-88
2022/06/20 12:15:27;;;;;;;;;;;;;;;32.11;23.58;99345.53;4991174;28;20418;-88
2022/06/20 12:17:58;;;;;;;;;;;;;;;32.62;22.58;99331.66;4991613;28;20330;-88
2022/06/20 12:23:21;;;;;;;;;;;;;;;32.81;20.59;99329.59;4991091;28;19968;-88
2022/06/20 12:26:05;;;;;;;;;;;;;;;32.93;21.09;99328.19;4992036;28;20012;-87
2022/06/20 12:28:32;;;;;;;;;;;;;;;32.49;23.32;99325.91;4991432;28;19914;-88
2022/06/20 12:31:11;;;;;;;;;;;;;;;32.35;22.31;99327.47;4990963;28;19953;-88
2022/06/20 12:33:57;;;;;;;;;;;;;;;32.87;22.53;99328.88;4992084;28;19910;-88
2022/06/20 12:36:25;;;;;;;;;;;;;;;32.58;21.31;99313.94;4999979;28;19918;-90
2022/06/20 12:38:54;;;;;;;;;;;;;;;32.89;22.67;99309.59;4991700;28;19914;-89
2022/06/20 12:41:21;;;;;;;;;;;;;;;33.36;21.33;99309.56;5007639;28;20000;-90
2022/06/20 12:43:50;;;;;;;;;;;;;;;33.26;21.93;99297.16;5010549;28;19918;-89
2022/06/20 12:46:27;;;;;;;;;;;;;;;33.41;21.08;99303.56;5011520;28;19947;-90
2022/06/20 12:49:07;;;;;;;;;;;;;;;33.16;20.26;99302.81;5011133;28;19914;-90
2022/06/20 12:51:44;;;;;;;;;;;;;;;32.96;20.68;99300.53;5011097;28;20307;-88
2022/06/20 12:54:15;;;;;;;;;;;;;;;33.13;19.75;99295.81;4992963;28;20291;-88
2022/06/20 12:56:58;;;;;;;;;;;;;;;32.86;21.50;99294.44;5011635;28;20407;-89
2022/06/20 12:59:26;;;;;;;;;;;;;;;33.22;21.15;99282.19;5011348;28;19924;-90
2022/06/20 13:02:10;;;;;;;;;;;;;;;32.89;21.01;99287.75;5014988;28;19914;-89
2022/06/20 13:04:35;;;;;;;;;;;;;;;32.62;20.34;99284.41;5014802;28;20368;-87
2022/06/20 13:07:18;;;;;;;;;;;;;;;33.23;20.65;99275.66;5014372;28;19920;-87
2022/06/20 13:09:52;;;;;;;;;;;;;;;32.94;20.54;99271.69;5014427;28;19913;-87
2022/06/20 13:12:20;;;;;;;;;;;;;;;33.27;22.19;99263.34;4995938;28;20311;-87
2022/06/20 13:14:51;;;;;;;;;;;;;;;33.32;19.86;99256.31;5014507;28;20047;-87